createdAt,value
2023-03-25T00:00:22.329Z,98133.00
2023-03-25T00:01:55.855Z,98139.00
2023-03-25T00:03:33.616Z,98135.00
2023-03-25T00:05:08.111Z,98141.00
2023-03-25T00:06:41.629Z,98137.00
2023-03-25T00:08:13.837Z,98137.00
2023-03-25T00:09:47.784Z,98142.00
2023-03-25T00:11:21.103Z,98131.00
2023-03-25T00:12:55.589Z,98138.00
2023-03-25T00:14:28.769Z,98135.00
2023-03-25T00:16:07.024Z,98141.00
2023-03-25T00:17:40.715Z,98136.00
2023-03-25T00:19:14.128Z,98140.00
2023-03-25T00:20:49.475Z,98135.00
2023-03-25T00:22:24.338Z,98142.00
2023-03-25T00:23:57.433Z,98138.00
2023-03-25T00:25:30.877Z,98141.00
2023-03-25T00:27:04.720Z,98143.00
2023-03-25T00:28:39.968Z,98142.00
2023-03-25T00:30:14.620Z,98141.00
2023-03-25T00:31:48.298Z,98133.00
2023-03-25T00:33:22.528Z,98148.00
2023-03-25T00:34:55.795Z,98156.00
2023-03-25T00:36:29.101Z,98142.00
2023-03-25T00:38:01.582Z,98142.00
2023-03-25T00:39:34.824Z,98140.00
2023-03-25T00:41:14.829Z,98137.00
2023-03-25T00:42:50.608Z,98144.00
2023-03-25T00:44:25.397Z,98123.00
2023-03-25T00:45:58.510Z,98129.00
2023-03-25T00:47:32.128Z,98132.00
2023-03-25T00:49:05.797Z,98132.00
2023-03-25T00:50:39.027Z,98129.00
2023-03-25T00:52:12.852Z,98128.00
2023-03-25T00:53:46.467Z,98126.00
2023-03-25T00:55:20.055Z,98131.00
2023-03-25T00:56:53.677Z,98123.00
2023-03-25T00:58:26.917Z,98118.00
2023-03-25T01:00:01.487Z,98134.00
2023-03-25T01:01:39.463Z,98126.00
2023-03-25T01:03:12.896Z,98120.00
2023-03-25T01:04:46.860Z,98117.00
2023-03-25T01:06:21.534Z,98123.00
2023-03-25T01:07:55.431Z,98120.00
2023-03-25T01:09:28.626Z,98112.00
2023-03-25T01:11:01.195Z,98111.00
2023-03-25T01:12:34.725Z,98100.00
2023-03-25T01:14:13.482Z,98108.00
2023-03-25T01:15:48.522Z,98109.00
2023-03-25T01:17:22.200Z,98114.00
2023-03-25T01:18:56.036Z,98099.00
2023-03-25T01:20:30.877Z,98112.00
2023-03-25T01:22:04.545Z,98108.00
2023-03-25T01:23:37.920Z,98105.00
2023-03-25T01:25:11.279Z,98102.00
2023-03-25T01:26:46.634Z,98111.00
2023-03-25T01:28:20.564Z,98113.00
2023-03-25T01:29:54.790Z,98110.00
2023-03-25T01:31:30.539Z,98101.00
2023-03-25T01:33:03.875Z,98104.00
2023-03-25T01:34:38.504Z,98104.00
2023-03-25T01:36:13.402Z,98095.00
2023-03-25T01:37:46.856Z,98094.00
2023-03-25T01:39:20.513Z,98096.00
2023-03-25T01:40:55.470Z,98102.00
2023-03-25T01:42:29.365Z,98100.00
2023-03-25T01:44:06.292Z,98089.00
2023-03-25T01:45:40.171Z,98096.00
2023-03-25T01:47:15.750Z,98097.00
2023-03-25T01:48:49.922Z,98105.00
2023-03-25T01:50:31.413Z,98094.00
2023-03-25T01:52:10.715Z,98091.00
2023-03-25T01:53:44.590Z,98096.00
2023-03-25T01:55:18.128Z,98095.00
2023-03-25T01:56:52.876Z,98095.00
2023-03-25T01:58:29.416Z,98093.00
2023-03-25T02:00:02.207Z,98101.00
2023-03-25T02:01:46.999Z,98086.00
2023-03-25T02:03:23.607Z,98097.00
2023-03-25T02:05:01.638Z,98092.00
2023-03-25T02:06:41.501Z,98093.00
2023-03-25T02:08:16.538Z,98089.00
2023-03-25T02:09:49.928Z,98092.00
2023-03-25T02:11:25.868Z,98087.00
2023-03-25T02:12:59.509Z,98080.00
2023-03-25T02:14:37.068Z,98089.00
2023-03-25T02:16:29.355Z,98081.00
2023-03-25T02:18:21.791Z,98075.00
2023-03-25T02:20:37.606Z,98077.00
2023-03-25T02:23:09.838Z,98079.00
2023-03-25T02:25:29.537Z,98080.00
2023-03-25T02:27:27.022Z,98087.00
2023-03-25T02:29:11.374Z,98082.00
2023-03-25T02:31:32.352Z,98089.00
2023-03-25T02:33:47.851Z,98100.00
2023-03-25T02:35:49.775Z,98089.00
2023-03-25T02:38:15.557Z,98102.00
2023-03-25T02:39:59.719Z,98094.00
2023-03-25T02:41:44.613Z,98089.00
2023-03-25T02:43:24.503Z,98090.00
2023-03-25T02:45:03.199Z,98093.00
2023-03-25T02:46:36.260Z,98091.00
2023-03-25T02:48:17.046Z,98083.00
2023-03-25T02:49:58.264Z,98087.00
2023-03-25T02:51:38.483Z,98090.00
2023-03-25T02:53:19.270Z,98085.00
2023-03-25T02:54:58.217Z,98084.00
2023-03-25T02:56:33.383Z,98079.00
2023-03-25T02:58:11.925Z,98069.00
2023-03-25T02:59:48.754Z,98075.00
2023-03-25T03:01:22.824Z,98075.00
2023-03-25T03:03:00.213Z,98078.00
2023-03-25T03:04:46.068Z,98072.00
2023-03-25T03:06:20.794Z,98072.00
2023-03-25T03:08:14.838Z,98072.00
2023-03-25T03:09:58.296Z,98068.00
2023-03-25T03:11:40.695Z,98063.00
2023-03-25T03:13:31.327Z,98071.00
2023-03-25T03:15:24.282Z,98068.00
2023-03-25T03:17:09.090Z,98079.00
2023-03-25T03:18:57.244Z,98076.00
2023-03-25T03:20:41.776Z,98084.00
2023-03-25T03:22:35.511Z,98081.00
2023-03-25T03:24:16.698Z,98078.00
2023-03-25T03:25:56.195Z,98075.00
2023-03-25T03:27:34.317Z,98074.00
2023-03-25T03:29:14.855Z,98075.00
2023-03-25T03:30:55.391Z,98078.00
2023-03-25T03:32:39.191Z,98078.00
2023-03-25T03:34:19.901Z,98073.00
2023-03-25T03:35:57.689Z,98076.00
2023-03-25T03:37:38.593Z,98072.00
2023-03-25T03:39:20.731Z,98074.00
2023-03-25T03:40:59.864Z,98076.00
2023-03-25T03:42:38.949Z,98069.00
2023-03-25T03:44:16.010Z,98078.00
2023-03-25T03:45:54.766Z,98080.00
2023-03-25T03:47:33.194Z,98072.00
2023-03-25T03:49:10.385Z,98079.00
2023-03-25T03:50:51.574Z,98078.00
2023-03-25T03:52:31.321Z,98079.00
2023-03-25T03:54:12.171Z,98077.00
2023-03-25T03:55:53.733Z,98081.00
2023-03-25T03:57:37.561Z,98097.00
2023-03-25T03:59:18.651Z,98088.00
2023-03-25T04:01:00.726Z,98075.00
2023-03-25T04:02:41.705Z,98078.00
2023-03-25T04:04:21.185Z,98085.00
2023-03-25T04:06:01.848Z,98084.00
2023-03-25T04:07:38.869Z,98077.00
2023-03-25T04:09:27.729Z,98084.00
2023-03-25T04:11:08.979Z,98093.00
2023-03-25T04:12:48.680Z,98081.00
2023-03-25T04:14:22.264Z,98084.00
2023-03-25T04:15:56.850Z,98069.00
2023-03-25T04:17:32.866Z,98075.00
2023-03-25T04:19:06.635Z,98083.00
2023-03-25T04:20:44.935Z,98079.00
2023-03-25T04:22:19.601Z,98083.00
2023-03-25T04:23:52.902Z,98070.00
2023-03-25T04:25:26.318Z,98080.00
2023-03-25T04:27:04.461Z,98077.00
2023-03-25T04:28:41.785Z,98063.00
2023-03-25T04:30:14.956Z,98074.00
2023-03-25T04:31:50.147Z,98085.00
2023-03-25T04:33:23.615Z,98079.00
2023-03-25T04:34:57.637Z,98088.00
2023-03-25T04:36:33.660Z,98076.00
2023-03-25T04:38:07.273Z,98094.00
2023-03-25T04:39:40.725Z,98095.00
2023-03-25T04:41:14.915Z,98093.00
2023-03-25T04:42:48.860Z,98098.00
2023-03-25T04:44:25.736Z,98089.00
2023-03-25T04:46:00.450Z,98089.00
2023-03-25T04:47:34.407Z,98098.00
2023-03-25T04:49:13.917Z,98088.00
2023-03-25T04:50:47.245Z,98103.00
2023-03-25T04:52:21.083Z,98098.00
2023-03-25T04:53:54.209Z,98108.00
2023-03-25T04:55:28.177Z,98096.00
2023-03-25T04:57:01.609Z,98084.00
2023-03-25T04:58:36.792Z,98087.00
2023-03-25T05:00:13.972Z,98089.00
2023-03-25T05:01:47.301Z,98087.00
2023-03-25T05:03:23.963Z,98084.00
2023-03-25T05:05:02.041Z,98084.00
2023-03-25T05:06:38.300Z,98088.00
2023-03-25T05:08:11.586Z,98070.00
2023-03-25T05:09:44.738Z,98081.00
2023-03-25T05:11:17.906Z,98074.00
2023-03-25T05:12:51.602Z,98082.00
2023-03-25T05:14:24.993Z,98073.00
2023-03-25T05:15:58.561Z,98082.00
2023-03-25T05:17:32.172Z,98081.00
2023-03-25T05:19:06.522Z,98083.00
2023-03-25T05:20:41.080Z,98079.00
2023-03-25T05:22:14.413Z,98083.00
2023-03-25T05:23:48.056Z,98079.00
2023-03-25T05:25:22.273Z,98078.00
2023-03-25T05:26:55.526Z,98077.00
2023-03-25T05:28:30.187Z,98078.00
2023-03-25T05:30:04.218Z,98080.00
2023-03-25T05:31:38.835Z,98078.00
2023-03-25T05:33:15.206Z,98077.00
2023-03-25T05:34:48.556Z,98078.00
2023-03-25T05:36:24.916Z,98078.00
2023-03-25T05:37:58.434Z,98078.00
2023-03-25T05:39:31.615Z,98078.00
2023-03-25T05:41:04.818Z,98083.00
2023-03-25T05:42:37.997Z,98078.00
2023-03-25T05:44:15.304Z,98084.00
2023-03-25T05:45:48.982Z,98088.00
2023-03-25T05:47:26.393Z,98075.00
2023-03-25T05:49:00.712Z,98088.00
2023-03-25T05:50:33.918Z,98097.00
2023-03-25T05:52:09.014Z,98087.00
2023-03-25T05:53:43.618Z,98093.00
2023-03-25T05:55:20.705Z,98099.00
2023-03-25T05:56:54.267Z,98096.00
2023-03-25T05:58:27.376Z,98103.00
2023-03-25T06:00:00.533Z,98111.00
2023-03-25T06:01:34.493Z,98108.00
2023-03-25T06:03:10.999Z,98113.00
2023-03-25T06:04:46.601Z,98110.00
2023-03-25T06:06:19.785Z,98115.00
2023-03-25T06:07:56.571Z,98113.00
2023-03-25T06:09:30.967Z,98103.00
2023-03-25T06:11:04.522Z,98099.00
2023-03-25T06:12:38.772Z,98114.00
2023-03-25T06:14:11.986Z,98106.00
2023-03-25T06:15:45.179Z,98104.00
2023-03-25T06:17:19.015Z,98103.00
2023-03-25T06:18:56.411Z,98104.00
2023-03-25T06:20:29.771Z,98105.00
2023-03-25T06:22:03.978Z,98110.00
2023-03-25T06:23:39.160Z,98103.00
2023-03-25T06:25:17.355Z,98103.00
2023-03-25T06:26:51.128Z,98098.00
2023-03-25T06:28:24.258Z,98107.00
2023-03-25T06:29:58.237Z,98107.00
2023-03-25T06:31:33.913Z,98097.00
2023-03-25T06:33:07.621Z,98101.00
2023-03-25T06:34:43.614Z,98104.00
2023-03-25T06:36:19.091Z,98110.00
2023-03-25T06:37:52.307Z,98097.00
2023-03-25T06:39:49.578Z,98102.00
2023-03-25T06:41:26.505Z,98102.00
2023-03-25T06:43:10.332Z,98101.00
2023-03-25T06:44:42.630Z,98100.00
2023-03-25T06:46:48.637Z,98094.00
2023-03-25T06:48:23.986Z,98100.00
2023-03-25T06:49:58.578Z,98093.00
2023-03-25T06:51:31.775Z,98100.00
2023-03-25T06:53:05.062Z,98093.00
2023-03-25T06:54:38.426Z,98105.00
2023-03-25T06:56:11.673Z,98104.00
2023-03-25T06:57:45.040Z,98108.00
2023-03-25T06:59:18.255Z,98109.00
2023-03-25T07:00:53.842Z,98112.00
2023-03-25T07:02:27.045Z,98116.00
2023-03-25T07:04:00.210Z,98115.00
2023-03-25T07:05:34.854Z,98122.00
2023-03-25T07:07:09.016Z,98122.00
2023-03-25T07:08:42.188Z,98107.00
2023-03-25T07:10:15.692Z,98117.00
2023-03-25T07:11:49.052Z,98117.00
2023-03-25T07:13:22.231Z,98118.00
2023-03-25T07:14:57.213Z,98114.00
2023-03-25T07:16:30.338Z,98104.00
2023-03-25T07:18:03.602Z,98107.00
2023-03-25T07:19:36.830Z,98113.00
2023-03-25T07:21:10.422Z,98109.00
2023-03-25T07:22:43.562Z,98106.00
2023-03-25T07:24:16.880Z,98127.00
2023-03-25T07:25:50.392Z,98125.00
2023-03-25T07:27:23.670Z,98137.00
2023-03-25T07:29:06.379Z,98128.00
2023-03-25T07:30:39.734Z,98121.00
2023-03-25T07:32:13.120Z,98134.00
2023-03-25T07:33:46.296Z,98136.00
2023-03-25T07:35:19.602Z,98141.00
2023-03-25T07:36:54.160Z,98139.00
2023-03-25T07:38:27.273Z,98116.00
2023-03-25T07:40:00.594Z,98136.00
2023-03-25T07:41:33.728Z,98139.00
2023-03-25T07:43:15.823Z,98142.00
2023-03-25T07:44:54.900Z,98141.00
2023-03-25T07:46:29.187Z,98143.00
2023-03-25T07:48:02.763Z,98145.00
2023-03-25T07:49:36.012Z,98145.00
2023-03-25T07:51:09.999Z,98147.00
2023-03-25T07:52:44.687Z,98149.00
2023-03-25T07:54:18.309Z,98151.00
2023-03-25T07:55:52.146Z,98146.00
2023-03-25T07:57:25.640Z,98149.00
2023-03-25T07:58:59.144Z,98157.00
2023-03-25T08:00:32.680Z,98149.00
2023-03-25T08:02:06.197Z,98156.00
2023-03-25T08:03:39.940Z,98149.00
2023-03-25T08:05:21.092Z,98143.00
2023-03-25T08:06:54.223Z,98140.00
2023-03-25T08:08:30.004Z,98146.00
2023-03-25T08:10:03.159Z,98135.00
2023-03-25T08:11:36.417Z,98144.00
2023-03-25T08:13:09.556Z,98148.00
2023-03-25T08:14:42.870Z,98144.00
2023-03-25T08:16:15.639Z,98150.00
2023-03-25T08:17:49.088Z,98152.00
2023-03-25T08:19:22.250Z,98150.00
2023-03-25T08:20:55.616Z,98145.00
2023-03-25T08:22:28.866Z,98145.00
2023-03-25T08:24:04.613Z,98144.00
2023-03-25T08:25:39.088Z,98161.00
2023-03-25T08:27:14.865Z,98150.00
2023-03-25T08:28:49.562Z,98161.00
2023-03-25T08:30:23.400Z,98154.00
2023-03-25T08:31:57.115Z,98184.00
2023-03-25T08:33:34.366Z,98156.00
2023-03-25T08:35:09.095Z,98167.00
2023-03-25T08:36:42.318Z,98161.00
2023-03-25T08:38:16.269Z,98161.00
2023-03-25T08:39:51.036Z,98171.00
2023-03-25T08:41:26.094Z,98176.00
2023-03-25T08:42:59.256Z,98178.00
2023-03-25T08:44:32.434Z,98179.00
2023-03-25T08:46:06.109Z,98175.00
2023-03-25T08:47:39.375Z,98173.00
2023-03-25T08:49:12.709Z,98181.00
2023-03-25T08:50:46.207Z,98180.00
2023-03-25T08:52:19.364Z,98177.00
2023-03-25T08:53:52.569Z,98175.00
2023-03-25T08:55:27.750Z,98173.00
2023-03-25T08:57:00.952Z,98169.00
2023-03-25T08:58:34.277Z,98156.00
2023-03-25T09:00:12.382Z,98163.00
2023-03-25T09:01:45.880Z,98171.00
2023-03-25T09:03:19.005Z,98164.00
2023-03-25T09:04:52.440Z,98156.00
2023-03-25T09:06:26.089Z,98159.00
2023-03-25T09:07:59.483Z,98160.00
2023-03-25T09:09:32.947Z,98157.00
2023-03-25T09:11:08.030Z,98167.00
2023-03-25T09:12:41.689Z,98152.00
2023-03-25T09:14:14.938Z,98151.00
2023-03-25T09:15:48.489Z,98160.00
2023-03-25T09:17:21.997Z,98147.00
2023-03-25T09:18:55.364Z,98153.00
2023-03-25T09:20:29.209Z,98151.00
2023-03-25T09:22:02.400Z,98148.00
2023-03-25T09:23:35.949Z,98148.00
2023-03-25T09:25:10.633Z,98144.00
2023-03-25T09:26:45.280Z,98153.00
2023-03-25T09:28:18.707Z,98155.00
2023-03-25T09:29:51.844Z,98158.00
2023-03-25T09:31:26.041Z,98171.00
2023-03-25T09:32:59.535Z,98165.00
2023-03-25T09:34:32.677Z,98154.00
2023-03-25T09:36:07.175Z,98166.00
2023-03-25T09:37:40.753Z,98157.00
2023-03-25T09:39:13.922Z,98162.00
2023-03-25T09:40:47.561Z,98175.00
2023-03-25T09:42:38.667Z,98164.00
2023-03-25T09:44:22.981Z,98162.00
2023-03-25T09:45:57.766Z,98157.00
2023-03-25T09:47:34.191Z,98153.00
2023-03-25T09:49:17.837Z,98157.00
2023-03-25T09:50:51.030Z,98160.00
2023-03-25T09:52:29.293Z,98154.00
2023-03-25T09:54:14.595Z,98159.00
2023-03-25T09:55:49.061Z,98151.00
2023-03-25T09:57:29.057Z,98161.00
2023-03-25T09:59:11.403Z,98161.00
2023-03-25T10:00:47.654Z,98153.00
2023-03-25T10:02:35.198Z,98167.00
2023-03-25T10:04:49.341Z,98174.00
2023-03-25T10:06:26.252Z,98165.00
2023-03-25T10:08:15.188Z,98165.00
2023-03-25T10:10:00.431Z,98152.00
2023-03-25T10:11:46.052Z,98153.00
2023-03-25T10:13:34.282Z,98163.00
2023-03-25T10:15:27.863Z,98150.00
2023-03-25T10:17:20.756Z,98156.00
2023-03-25T10:19:15.092Z,98156.00
2023-03-25T10:21:02.490Z,98158.00
2023-03-25T10:22:48.340Z,98159.00
2023-03-25T10:24:28.026Z,98168.00
2023-03-25T10:26:07.860Z,98164.00
2023-03-25T10:27:46.609Z,98173.00
2023-03-25T10:29:23.346Z,98170.00
2023-03-25T10:31:00.137Z,98159.00
2023-03-25T10:32:41.628Z,98169.00
2023-03-25T10:34:20.398Z,98174.00
2023-03-25T10:35:55.122Z,98161.00
2023-03-25T10:37:32.641Z,98163.00
2023-03-25T10:39:14.097Z,98172.00
2023-03-25T10:40:51.625Z,98165.00
2023-03-25T10:42:33.490Z,98169.00
2023-03-25T10:44:10.239Z,98181.00
2023-03-25T10:45:45.647Z,98161.00
2023-03-25T10:47:25.726Z,98182.00
2023-03-25T10:48:59.495Z,98179.00
2023-03-25T10:50:32.852Z,98174.00
2023-03-25T10:52:06.453Z,98187.00
2023-03-25T10:53:42.433Z,98196.00
2023-03-25T10:55:26.623Z,98189.00
2023-03-25T10:57:03.715Z,98191.00
2023-03-25T10:58:40.493Z,98192.00
2023-03-25T11:00:17.621Z,98188.00
2023-03-25T11:01:54.297Z,98185.00
2023-03-25T11:03:34.318Z,98185.00
2023-03-25T11:05:10.496Z,98191.00
2023-03-25T11:06:47.289Z,98182.00
2023-03-25T11:08:25.148Z,98179.00
2023-03-25T11:10:16.000Z,98189.00
2023-03-25T11:11:49.269Z,98183.00
2023-03-25T11:13:26.994Z,98183.00
2023-03-25T11:15:02.290Z,98187.00
2023-03-25T11:16:43.611Z,98189.00
2023-03-25T11:18:23.150Z,98191.00
2023-03-25T11:20:06.568Z,98194.00
2023-03-25T11:21:40.154Z,98188.00
2023-03-25T11:23:23.528Z,98197.00
2023-03-25T11:25:03.482Z,98201.00
2023-03-25T11:26:41.581Z,98191.00
2023-03-25T11:28:21.427Z,98179.00
2023-03-25T11:29:58.312Z,98195.00
2023-03-25T11:31:36.509Z,98181.00
2023-03-25T11:33:17.177Z,98193.00
2023-03-25T11:34:54.554Z,98205.00
2023-03-25T11:36:32.778Z,98192.00
2023-03-25T11:38:17.611Z,98191.00
2023-03-25T11:39:55.190Z,98177.00
2023-03-25T11:41:34.797Z,98183.00
2023-03-25T11:43:12.053Z,98184.00
2023-03-25T11:44:53.403Z,98179.00
2023-03-25T11:46:27.988Z,98183.00
2023-03-25T11:48:11.896Z,98176.00
2023-03-25T11:49:50.443Z,98173.00
2023-03-25T11:51:29.109Z,98175.00
2023-03-25T11:53:08.159Z,98167.00
2023-03-25T11:54:43.333Z,98152.00
2023-03-25T11:56:23.184Z,98167.00
2023-03-25T11:58:00.117Z,98160.00
2023-03-25T11:59:40.014Z,98154.00
2023-03-25T12:01:27.673Z,98153.00
2023-03-25T12:03:03.241Z,98166.00
2023-03-25T12:04:37.393Z,98166.00
2023-03-25T12:06:22.069Z,98160.00
2023-03-25T12:08:11.418Z,98167.00
2023-03-25T12:09:57.157Z,98151.00
2023-03-25T12:11:36.526Z,98151.00
2023-03-25T12:13:22.612Z,98152.00
2023-03-25T12:15:16.440Z,98165.00
2023-03-25T12:17:01.262Z,98168.00
2023-03-25T12:18:54.150Z,98176.00
2023-03-25T12:20:34.328Z,98175.00
2023-03-25T12:22:26.514Z,98173.00
2023-03-25T12:24:16.187Z,98179.00
2023-03-25T12:26:02.198Z,98191.00
2023-03-25T12:27:53.537Z,98185.00
2023-03-25T12:29:43.819Z,98168.00
2023-03-25T12:31:36.584Z,98171.00
2023-03-25T12:33:31.256Z,98158.00
2023-03-25T12:35:29.569Z,98171.00
2023-03-25T12:37:17.386Z,98176.00
2023-03-25T12:39:06.006Z,98168.00
2023-03-25T12:41:12.320Z,98178.00
2023-03-25T12:43:02.048Z,98200.00
2023-03-25T12:45:01.512Z,98214.00
2023-03-25T12:47:05.514Z,98189.00
2023-03-25T12:49:05.337Z,98219.00
2023-03-25T12:50:52.054Z,98207.00
2023-03-25T12:52:38.091Z,98200.00
2023-03-25T12:54:37.882Z,98209.00
2023-03-25T12:56:34.374Z,98197.00
2023-03-25T12:58:43.826Z,98189.00
2023-03-25T13:00:26.471Z,98208.00
2023-03-25T13:02:21.077Z,98187.00
2023-03-25T13:04:10.738Z,98209.00
2023-03-25T13:05:53.534Z,98189.00
2023-03-25T13:07:34.706Z,98197.00
2023-03-25T13:09:20.733Z,98191.00
2023-03-25T13:11:04.587Z,98173.00
2023-03-25T13:12:44.787Z,98160.00
2023-03-25T13:14:25.335Z,98173.00
2023-03-25T13:16:07.957Z,98168.00
2023-03-25T13:17:48.965Z,98172.00
2023-03-25T13:19:27.890Z,98170.00
2023-03-25T13:21:13.741Z,98164.00
2023-03-25T13:22:53.193Z,98164.00
2023-03-25T13:24:43.014Z,98168.00
2023-03-25T13:26:23.784Z,98165.00
2023-03-25T13:28:01.587Z,98149.00
2023-03-25T13:29:41.002Z,98157.00
2023-03-25T13:31:19.187Z,98152.00
2023-03-25T13:32:58.361Z,98165.00
2023-03-25T13:34:41.122Z,98171.00
2023-03-25T13:36:27.371Z,98167.00
2023-03-25T13:38:05.688Z,98162.00
2023-03-25T13:39:55.833Z,98156.00
2023-03-25T13:41:38.060Z,98143.00
2023-03-25T13:43:24.453Z,98142.00
2023-03-25T13:44:59.718Z,98159.00
2023-03-25T13:46:38.930Z,98149.00
2023-03-25T13:48:19.671Z,98157.00
2023-03-25T13:49:59.229Z,98183.00
2023-03-25T13:51:32.726Z,98182.00
2023-03-25T13:53:15.016Z,98175.00
2023-03-25T13:54:57.737Z,98194.00
2023-03-25T13:57:02.478Z,98197.00
2023-03-25T13:59:13.457Z,98228.00
2023-03-25T14:01:28.913Z,98233.00
2023-03-25T14:03:59.993Z,98267.00
2023-03-25T14:06:07.419Z,98253.00
2023-03-25T14:08:09.611Z,98245.00
2023-03-25T14:10:30.808Z,98254.00
2023-03-25T14:12:13.446Z,98266.00
2023-03-25T14:13:53.927Z,98252.00
2023-03-25T14:15:33.868Z,98247.00
2023-03-25T14:17:08.882Z,98235.00
2023-03-25T14:18:45.428Z,98231.00
2023-03-25T14:20:25.305Z,98232.00
2023-03-25T14:21:59.849Z,98231.00
2023-03-25T14:23:33.578Z,98236.00
2023-03-25T14:25:22.608Z,98230.00
2023-03-25T14:27:02.065Z,98232.00
2023-03-25T14:28:39.568Z,98238.00
2023-03-25T14:30:22.617Z,98215.00
2023-03-25T14:32:06.689Z,98226.00
2023-03-25T14:34:34.169Z,98223.00
2023-03-25T14:36:09.868Z,98219.00
2023-03-25T14:37:43.751Z,98227.00
2023-03-25T14:39:40.099Z,98224.00
2023-03-25T14:41:16.046Z,98202.00
2023-03-25T14:43:00.623Z,98224.00
2023-03-25T14:44:40.993Z,98226.00
2023-03-25T14:46:21.720Z,98205.00
2023-03-25T14:47:55.546Z,98225.00
2023-03-25T14:49:54.542Z,98219.00
2023-03-25T14:51:50.584Z,98220.00
2023-03-25T14:53:23.982Z,98210.00
2023-03-25T14:54:58.452Z,98222.00
2023-03-25T14:56:38.840Z,98215.00
2023-03-25T14:58:21.938Z,98193.00
2023-03-25T15:00:01.806Z,98196.00
2023-03-25T15:01:40.301Z,98203.00
2023-03-25T15:03:18.276Z,98203.00
2023-03-25T15:04:59.150Z,98207.00
2023-03-25T15:06:36.756Z,98194.00
2023-03-25T15:08:16.678Z,98207.00
2023-03-25T15:09:56.060Z,98195.00
2023-03-25T15:11:37.821Z,98209.00
2023-03-25T15:13:17.349Z,98196.00
2023-03-25T15:14:57.185Z,98203.00
2023-03-25T15:16:36.284Z,98204.00
2023-03-25T15:18:11.581Z,98223.00
2023-03-25T15:20:31.560Z,98212.00
2023-03-25T15:22:21.216Z,98207.00
2023-03-25T15:24:06.297Z,98204.00
2023-03-25T15:25:41.301Z,98210.00
2023-03-25T15:27:33.290Z,98212.00
2023-03-25T15:29:31.477Z,98213.00
2023-03-25T15:31:28.186Z,98217.00
2023-03-25T15:33:24.667Z,98215.00
2023-03-25T15:35:52.922Z,98216.00
2023-03-25T15:38:04.122Z,98222.00
2023-03-25T15:39:56.579Z,98208.00
2023-03-25T15:42:07.216Z,98210.00
2023-03-25T15:44:19.891Z,98230.00
2023-03-25T15:46:29.358Z,98227.00
2023-03-25T15:48:22.488Z,98232.00
2023-03-25T15:50:35.513Z,98228.00
2023-03-25T15:52:31.697Z,98242.00
2023-03-25T15:54:32.756Z,98249.00
2023-03-25T15:56:11.397Z,98260.00
2023-03-25T15:57:51.129Z,98248.00
2023-03-25T15:59:38.690Z,98261.00
2023-03-25T16:01:26.076Z,98252.00
2023-03-25T16:03:09.282Z,98248.00
2023-03-25T16:04:47.703Z,98238.00
2023-03-25T16:06:23.204Z,98237.00
2023-03-25T16:08:01.142Z,98236.00
2023-03-25T16:09:44.552Z,98218.00
2023-03-25T16:11:26.997Z,98233.00
2023-03-25T16:13:05.488Z,98239.00
2023-03-25T16:14:44.125Z,98227.00
2023-03-25T16:16:19.669Z,98246.00
2023-03-25T16:17:53.626Z,98244.00
2023-03-25T16:19:35.016Z,98239.00
2023-03-25T16:21:09.292Z,98237.00
2023-03-25T16:22:45.585Z,98254.00
2023-03-25T16:24:21.425Z,98256.00
2023-03-25T16:25:56.234Z,98230.00
2023-03-25T16:27:35.605Z,98236.00
2023-03-25T16:29:18.446Z,98248.00
2023-03-25T16:30:54.616Z,98240.00
2023-03-25T16:32:34.720Z,98254.00
2023-03-25T16:34:15.026Z,98243.00
2023-03-25T16:35:54.081Z,98245.00
2023-03-25T16:37:27.854Z,98244.00
2023-03-25T16:39:01.926Z,98238.00
2023-03-25T16:40:41.642Z,98246.00
2023-03-25T16:42:26.697Z,98257.00
2023-03-25T16:44:00.156Z,98248.00
2023-03-25T16:45:34.197Z,98246.00
2023-03-25T16:47:13.057Z,98244.00
2023-03-25T16:48:53.240Z,98252.00
2023-03-25T16:50:26.755Z,98257.00
2023-03-25T16:52:03.259Z,98244.00
2023-03-25T16:53:40.930Z,98245.00
2023-03-25T16:55:31.446Z,98256.00
2023-03-25T16:57:08.617Z,98252.00
2023-03-25T16:59:00.180Z,98249.00
2023-03-25T17:00:43.159Z,98243.00
2023-03-25T17:02:30.455Z,98242.00
2023-03-25T17:04:17.018Z,98247.00
2023-03-25T17:06:04.545Z,98256.00
2023-03-25T17:07:42.522Z,98248.00
2023-03-25T17:09:19.654Z,98248.00
2023-03-25T17:10:58.060Z,98256.00
2023-03-25T17:12:31.248Z,98250.00
2023-03-25T17:14:14.920Z,98265.00
2023-03-25T17:15:49.310Z,98263.00
2023-03-25T17:17:37.610Z,98275.00
2023-03-25T17:19:15.381Z,98262.00
2023-03-25T17:20:51.578Z,98279.00
2023-03-25T17:22:32.756Z,98288.00
2023-03-25T17:24:23.408Z,98283.00
2023-03-25T17:26:01.095Z,98287.00
2023-03-25T17:27:37.174Z,98284.00
2023-03-25T17:29:14.139Z,98291.00
2023-03-25T17:30:47.884Z,98287.00
2023-03-25T17:32:22.404Z,98285.00
2023-03-25T17:34:05.559Z,98272.00
2023-03-25T17:35:40.718Z,98287.00
2023-03-25T17:37:16.276Z,98282.00
2023-03-25T17:38:53.386Z,98283.00
2023-03-25T17:40:29.416Z,98274.00
2023-03-25T17:42:05.848Z,98282.00
2023-03-25T17:43:44.736Z,98280.00
2023-03-25T17:45:19.129Z,98281.00
2023-03-25T17:46:52.374Z,98288.00
2023-03-25T17:48:26.276Z,98289.00
2023-03-25T17:50:14.496Z,98290.00
2023-03-25T17:51:48.002Z,98283.00
2023-03-25T17:53:22.252Z,98290.00
2023-03-25T17:54:55.532Z,98294.00
2023-03-25T17:56:30.412Z,98294.00
2023-03-25T17:58:04.259Z,98293.00
2023-03-25T17:59:37.399Z,98296.00
2023-03-25T18:01:12.753Z,98296.00
2023-03-25T18:02:46.147Z,98298.00
2023-03-25T18:04:20.986Z,98309.00
2023-03-25T18:05:55.870Z,98308.00
2023-03-25T18:07:29.054Z,98308.00
2023-03-25T18:09:02.217Z,98323.00
2023-03-25T18:10:35.718Z,98324.00
2023-03-25T18:12:09.316Z,98324.00
2023-03-25T18:13:47.807Z,98324.00
2023-03-25T18:15:21.410Z,98320.00
2023-03-25T18:16:56.234Z,98323.00
2023-03-25T18:18:31.923Z,98320.00
2023-03-25T18:20:16.411Z,98317.00
2023-03-25T18:21:50.964Z,98325.00
2023-03-25T18:23:24.440Z,98329.00
2023-03-25T18:24:58.106Z,98339.00
2023-03-25T18:26:31.210Z,98341.00
2023-03-25T18:28:05.115Z,98341.00
2023-03-25T18:29:39.684Z,98337.00
2023-03-25T18:31:17.013Z,98336.00
2023-03-25T18:32:50.844Z,98345.00
2023-03-25T18:34:25.992Z,98357.00
2023-03-25T18:35:59.903Z,98346.00
2023-03-25T18:37:33.586Z,98345.00
2023-03-25T18:39:08.429Z,98339.00
2023-03-25T18:40:41.530Z,98355.00
2023-03-25T18:42:14.846Z,98350.00
2023-03-25T18:43:48.178Z,98357.00
2023-03-25T18:45:23.800Z,98357.00
2023-03-25T18:46:56.989Z,98353.00
2023-03-25T18:48:30.120Z,98352.00
2023-03-25T18:50:02.296Z,98354.00
2023-03-25T18:51:37.277Z,98353.00
2023-03-25T18:53:13.016Z,98355.00
2023-03-25T18:54:46.135Z,98361.00
2023-03-25T18:56:20.466Z,98362.00
2023-03-25T18:57:53.612Z,98359.00
2023-03-25T18:59:26.916Z,98371.00
2023-03-25T19:01:02.038Z,98373.00
2023-03-25T19:02:35.587Z,98368.00
2023-03-25T19:04:11.429Z,98368.00
2023-03-25T19:05:47.992Z,98373.00
2023-03-25T19:07:24.286Z,98371.00
2023-03-25T19:09:03.590Z,98382.00
2023-03-25T19:10:37.441Z,98373.00
2023-03-25T19:12:10.973Z,98373.00
2023-03-25T19:13:44.107Z,98377.00
2023-03-25T19:15:20.567Z,98379.00
2023-03-25T19:17:03.507Z,98380.00
2023-03-25T19:18:37.238Z,98372.00
2023-03-25T19:20:17.581Z,98379.00
2023-03-25T19:21:54.140Z,98375.00
2023-03-25T19:23:27.440Z,98371.00
2023-03-25T19:25:02.207Z,98371.00
2023-03-25T19:26:35.428Z,98370.00